sensor_id;sensor_type;location;lat;lon;timestamp;temperature;humidity
20446;DHT22;10382;49.140;9.234;2023-02-15T00:01:05;3.40;99.90
20446;DHT22;10382;49.140;9.234;2023-02-15T00:03:32;3.40;99.90
20446;DHT22;10382;49.140;9.234;2023-02-15T00:05:58;3.40;99.90
20446;DHT22;10382;49.140;9.234;2023-02-15T00:08:25;3.30;99.90
20446;DHT22;10382;49.140;9.234;2023-02-15T00:10:52;3.40;99.90
20446;DHT22;10382;49.140;9.234;2023-02-15T00:13:19;3.20;99.90
20446;DHT22;10382;49.140;9.234;2023-02-15T00:15:46;3.00;99.90
20446;DHT22;10382;49.140;9.234;2023-02-15T00:18:14;2.80;99.90
20446;DHT22;10382;49.140;9.234;2023-02-15T00:20:41;2.70;99.90
20446;DHT22;10382;49.140;9.234;2023-02-15T00:23:08;2.60;99.90
20446;DHT22;10382;49.140;9.234;2023-02-15T00:25:35;2.70;99.90
20446;DHT22;10382;49.140;9.234;2023-02-15T00:28:01;2.60;99.90
20446;DHT22;10382;49.140;9.234;2023-02-15T00:30:28;2.70;99.90
20446;DHT22;10382;49.140;9.234;2023-02-15T00:32:55;2.80;99.90
20446;DHT22;10382;49.140;9.234;2023-02-15T00:35:24;2.80;99.90
20446;DHT22;10382;49.140;9.234;2023-02-15T00:37:50;2.80;99.90
20446;DHT22;10382;49.140;9.234;2023-02-15T00:40:18;2.90;99.90
20446;DHT22;10382;49.140;9.234;2023-02-15T00:42:44;3.00;99.90
20446;DHT22;10382;49.140;9.234;2023-02-15T00:45:11;3.10;99.90
20446;DHT22;10382;49.140;9.234;2023-02-15T00:47:38;3.20;99.90
20446;DHT22;10382;49.140;9.234;2023-02-15T00:50:06;3.20;99.90
20446;DHT22;10382;49.140;9.234;2023-02-15T00:52:34;3.20;99.90
20446;DHT22;10382;49.140;9.234;2023-02-15T00:55:01;3.10;99.90
20446;DHT22;10382;49.140;9.234;2023-02-15T00:57:28;3.20;99.90
20446;DHT22;10382;49.140;9.234;2023-02-15T00:59:55;3.30;99.90
20446;DHT22;10382;49.140;9.234;2023-02-15T01:02:21;3.30;99.90
20446;DHT22;10382;49.140;9.234;2023-02-15T01:04:48;3.40;99.90
20446;DHT22;10382;49.140;9.234;2023-02-15T01:07:15;3.30;99.90
20446;DHT22;10382;49.140;9.234;2023-02-15T01:09:43;3.10;99.90
20446;DHT22;10382;49.140;9.234;2023-02-15T01:12:10;2.70;99.90
20446;DHT22;10382;49.140;9.234;2023-02-15T01:14:37;2.60;99.90
20446;DHT22;10382;49.140;9.234;2023-02-15T01:17:04;2.30;99.90
20446;DHT22;10382;49.140;9.234;2023-02-15T01:19:31;2.30;99.90
20446;DHT22;10382;49.140;9.234;2023-02-15T01:21:57;2.30;99.90
20446;DHT22;10382;49.140;9.234;2023-02-15T01:24:24;2.50;99.90
20446;DHT22;10382;49.140;9.234;2023-02-15T01:26:52;2.50;99.90
20446;DHT22;10382;49.140;9.234;2023-02-15T01:29:19;2.60;99.90
20446;DHT22;10382;49.140;9.234;2023-02-15T01:31:46;2.40;99.90
20446;DHT22;10382;49.140;9.234;2023-02-15T01:34:13;2.50;99.90
20446;DHT22;10382;49.140;9.234;2023-02-15T01:36:40;2.70;99.90
20446;DHT22;10382;49.140;9.234;2023-02-15T01:39:07;2.80;99.90
20446;DHT22;10382;49.140;9.234;2023-02-15T01:41:35;2.90;99.90
20446;DHT22;10382;49.140;9.234;2023-02-15T01:47:03;2.90;99.90
20446;DHT22;10382;49.140;9.234;2023-02-15T01:49:30;2.70;99.90
20446;DHT22;10382;49.140;9.234;2023-02-15T01:51:59;2.50;99.90
20446;DHT22;10382;49.140;9.234;2023-02-15T01:54:29;2.30;99.90
20446;DHT22;10382;49.140;9.234;2023-02-15T01:57:01;2.30;99.90
20446;DHT22;10382;49.140;9.234;2023-02-15T01:59:29;2.00;99.90
20446;DHT22;10382;49.140;9.234;2023-02-15T02:01:59;1.80;99.90
20446;DHT22;10382;49.140;9.234;2023-02-15T02:04:33;1.90;99.90
20446;DHT22;10382;49.140;9.234;2023-02-15T02:07:02;1.80;99.90
20446;DHT22;10382;49.140;9.234;2023-02-15T02:09:30;1.80;99.90
20446;DHT22;10382;49.140;9.234;2023-02-15T02:12:04;1.90;99.90
20446;DHT22;10382;49.140;9.234;2023-02-15T02:14:31;2.00;99.90
20446;DHT22;10382;49.140;9.234;2023-02-15T02:17:04;2.00;99.90
20446;DHT22;10382;49.140;9.234;2023-02-15T02:20:00;2.00;99.90
20446;DHT22;10382;49.140;9.234;2023-02-15T02:23:02;2.00;99.90
20446;DHT22;10382;49.140;9.234;2023-02-15T02:25:51;1.90;99.90
20446;DHT22;10382;49.140;9.234;2023-02-15T02:28:41;1.90;99.90
20446;DHT22;10382;49.140;9.234;2023-02-15T02:31:36;2.10;99.90
20446;DHT22;10382;49.140;9.234;2023-02-15T02:34:10;2.20;99.90
20446;DHT22;10382;49.140;9.234;2023-02-15T02:36:42;2.30;99.90
20446;DHT22;10382;49.140;9.234;2023-02-15T02:39:21;2.40;99.90
20446;DHT22;10382;49.140;9.234;2023-02-15T02:41:56;2.30;99.90
20446;DHT22;10382;49.140;9.234;2023-02-15T02:44:28;2.20;99.90
20446;DHT22;10382;49.140;9.234;2023-02-15T02:46:59;2.30;99.90
20446;DHT22;10382;49.140;9.234;2023-02-15T02:49:34;2.10;99.90
20446;DHT22;10382;49.140;9.234;2023-02-15T02:54:34;2.20;99.90
20446;DHT22;10382;49.140;9.234;2023-02-15T02:57:04;2.30;99.90
20446;DHT22;10382;49.140;9.234;2023-02-15T02:59:33;2.40;99.90
20446;DHT22;10382;49.140;9.234;2023-02-15T03:02:05;2.50;99.90
20446;DHT22;10382;49.140;9.234;2023-02-15T03:04:41;2.60;99.90
20446;DHT22;10382;49.140;9.234;2023-02-15T03:07:12;2.60;99.90
20446;DHT22;10382;49.140;9.234;2023-02-15T03:09:43;2.80;99.90
20446;DHT22;10382;49.140;9.234;2023-02-15T03:12:14;2.80;99.90
20446;DHT22;10382;49.140;9.234;2023-02-15T03:14:44;2.80;99.90
20446;DHT22;10382;49.140;9.234;2023-02-15T03:17:12;2.80;99.90
20446;DHT22;10382;49.140;9.234;2023-02-15T03:19:44;2.60;99.90
20446;DHT22;10382;49.140;9.234;2023-02-15T03:22:17;2.20;99.90
20446;DHT22;10382;49.140;9.234;2023-02-15T03:24:48;1.90;99.90
20446;DHT22;10382;49.140;9.234;2023-02-15T03:27:20;1.70;99.90
20446;DHT22;10382;49.140;9.234;2023-02-15T03:29:51;1.70;99.90
20446;DHT22;10382;49.140;9.234;2023-02-15T03:32:19;1.60;99.90
20446;DHT22;10382;49.140;9.234;2023-02-15T03:34:48;1.50;99.90
20446;DHT22;10382;49.140;9.234;2023-02-15T03:37:19;1.40;99.90
20446;DHT22;10382;49.140;9.234;2023-02-15T03:39:53;1.30;99.90
20446;DHT22;10382;49.140;9.234;2023-02-15T03:42:25;1.40;99.90
20446;DHT22;10382;49.140;9.234;2023-02-15T03:44:57;1.40;99.90
20446;DHT22;10382;49.140;9.234;2023-02-15T03:47:27;1.50;99.90
20446;DHT22;10382;49.140;9.234;2023-02-15T03:50:00;1.60;99.90
20446;DHT22;10382;49.140;9.234;2023-02-15T03:52:29;1.60;99.90
20446;DHT22;10382;49.140;9.234;2023-02-15T03:54:56;1.70;99.90
20446;DHT22;10382;49.140;9.234;2023-02-15T03:57:25;1.70;99.90
20446;DHT22;10382;49.140;9.234;2023-02-15T04:00:13;1.90;99.90
20446;DHT22;10382;49.140;9.234;2023-02-15T04:03:18;2.00;99.90
20446;DHT22;10382;49.140;9.234;2023-02-15T04:05:50;2.10;99.90
20446;DHT22;10382;49.140;9.234;2023-02-15T04:08:17;2.20;99.90
20446;DHT22;10382;49.140;9.234;2023-02-15T04:10:43;2.20;99.90
20446;DHT22;10382;49.140;9.234;2023-02-15T04:13:18;2.30;99.90
20446;DHT22;10382;49.140;9.234;2023-02-15T04:15:45;2.40;99.90
20446;DHT22;10382;49.140;9.234;2023-02-15T04:18:30;2.30;99.90
20446;DHT22;10382;49.140;9.234;2023-02-15T04:21:16;2.20;99.90
20446;DHT22;10382;49.140;9.234;2023-02-15T04:24:00;2.20;99.90
20446;DHT22;10382;49.140;9.234;2023-02-15T04:26:44;2.00;99.90
20446;DHT22;10382;49.140;9.234;2023-02-15T04:29:13;2.00;99.90
20446;DHT22;10382;49.140;9.234;2023-02-15T04:31:40;2.00;99.90
20446;DHT22;10382;49.140;9.234;2023-02-15T04:34:08;2.00;99.90
20446;DHT22;10382;49.140;9.234;2023-02-15T04:36:36;1.90;99.90
20446;DHT22;10382;49.140;9.234;2023-02-15T04:39:03;1.80;99.90
20446;DHT22;10382;49.140;9.234;2023-02-15T04:41:31;1.90;99.90
20446;DHT22;10382;49.140;9.234;2023-02-15T04:43:57;2.00;99.90
20446;DHT22;10382;49.140;9.234;2023-02-15T04:46:24;2.10;99.90
20446;DHT22;10382;49.140;9.234;2023-02-15T04:48:52;2.10;99.90
20446;DHT22;10382;49.140;9.234;2023-02-15T04:51:18;2.10;99.90
20446;DHT22;10382;49.140;9.234;2023-02-15T04:53:47;2.00;99.90
20446;DHT22;10382;49.140;9.234;2023-02-15T04:56:14;2.10;99.90
20446;DHT22;10382;49.140;9.234;2023-02-15T04:58:41;2.20;99.90
20446;DHT22;10382;49.140;9.234;2023-02-15T05:01:08;2.30;99.90
20446;DHT22;10382;49.140;9.234;2023-02-15T05:03:35;2.40;99.90
20446;DHT22;10382;49.140;9.234;2023-02-15T05:06:02;2.50;99.90
20446;DHT22;10382;49.140;9.234;2023-02-15T05:08:30;2.60;99.90
20446;DHT22;10382;49.140;9.234;2023-02-15T05:10:58;2.70;99.90
20446;DHT22;10382;49.140;9.234;2023-02-15T05:13:25;2.60;99.90
20446;DHT22;10382;49.140;9.234;2023-02-15T05:15:52;2.60;99.90
20446;DHT22;10382;49.140;9.234;2023-02-15T05:18:20;2.60;99.90
20446;DHT22;10382;49.140;9.234;2023-02-15T05:20:48;2.50;99.90
20446;DHT22;10382;49.140;9.234;2023-02-15T05:23:15;2.40;99.90
20446;DHT22;10382;49.140;9.234;2023-02-15T05:25:46;2.40;99.90
20446;DHT22;10382;49.140;9.234;2023-02-15T05:28:32;2.50;99.90
20446;DHT22;10382;49.140;9.234;2023-02-15T05:31:03;2.60;99.90
20446;DHT22;10382;49.140;9.234;2023-02-15T05:33:30;2.40;99.90
20446;DHT22;10382;49.140;9.234;2023-02-15T05:35:57;2.30;99.90
20446;DHT22;10382;49.140;9.234;2023-02-15T05:38:24;2.30;99.90
20446;DHT22;10382;49.140;9.234;2023-02-15T05:40:51;2.30;99.90
20446;DHT22;10382;49.140;9.234;2023-02-15T05:43:18;2.40;99.90
20446;DHT22;10382;49.140;9.234;2023-02-15T05:45:46;2.40;99.90
20446;DHT22;10382;49.140;9.234;2023-02-15T05:48:13;2.30;99.90
20446;DHT22;10382;49.140;9.234;2023-02-15T05:50:40;2.10;99.90
20446;DHT22;10382;49.140;9.234;2023-02-15T05:53:07;2.20;99.90
20446;DHT22;10382;49.140;9.234;2023-02-15T05:55:36;2.10;99.90
20446;DHT22;10382;49.140;9.234;2023-02-15T05:58:03;2.10;99.90
20446;DHT22;10382;49.140;9.234;2023-02-15T06:00:30;2.10;99.90
20446;DHT22;10382;49.140;9.234;2023-02-15T06:02:58;1.80;99.90
20446;DHT22;10382;49.140;9.234;2023-02-15T06:05:25;1.80;99.90
20446;DHT22;10382;49.140;9.234;2023-02-15T06:07:52;1.70;99.90
20446;DHT22;10382;49.140;9.234;2023-02-15T06:10:19;1.70;99.90
20446;DHT22;10382;49.140;9.234;2023-02-15T06:12:46;1.80;99.90
20446;DHT22;10382;49.140;9.234;2023-02-15T06:15:13;1.90;99.90
20446;DHT22;10382;49.140;9.234;2023-02-15T06:17:41;2.10;99.90
20446;DHT22;10382;49.140;9.234;2023-02-15T06:20:10;2.20;99.90
20446;DHT22;10382;49.140;9.234;2023-02-15T06:22:37;2.30;99.90
20446;DHT22;10382;49.140;9.234;2023-02-15T06:25:05;2.40;99.90
20446;DHT22;10382;49.140;9.234;2023-02-15T06:27:35;2.40;99.90
20446;DHT22;10382;49.140;9.234;2023-02-15T06:30:02;2.50;99.90
20446;DHT22;10382;49.140;9.234;2023-02-15T06:32:29;2.50;99.90
20446;DHT22;10382;49.140;9.234;2023-02-15T06:34:56;2.50;99.90
20446;DHT22;10382;49.140;9.234;2023-02-15T06:37:24;2.40;99.90
20446;DHT22;10382;49.140;9.234;2023-02-15T06:39:51;2.30;99.90
20446;DHT22;10382;49.140;9.234;2023-02-15T06:42:18;2.30;99.90
20446;DHT22;10382;49.140;9.234;2023-02-15T06:44:45;2.40;99.90
20446;DHT22;10382;49.140;9.234;2023-02-15T06:47:12;2.40;99.90
20446;DHT22;10382;49.140;9.234;2023-02-15T06:49:39;2.50;99.90
20446;DHT22;10382;49.140;9.234;2023-02-15T06:52:06;2.60;99.90
20446;DHT22;10382;49.140;9.234;2023-02-15T06:54:34;2.70;99.90
20446;DHT22;10382;49.140;9.234;2023-02-15T06:57:01;2.80;99.90
20446;DHT22;10382;49.140;9.234;2023-02-15T06:59:28;2.80;99.90
20446;DHT22;10382;49.140;9.234;2023-02-15T07:01:55;2.90;99.90
20446;DHT22;10382;49.140;9.234;2023-02-15T07:04:22;3.00;99.90
20446;DHT22;10382;49.140;9.234;2023-02-15T07:06:48;3.10;99.90
20446;DHT22;10382;49.140;9.234;2023-02-15T07:09:16;3.10;99.90
20446;DHT22;10382;49.140;9.234;2023-02-15T07:11:44;3.10;99.90
20446;DHT22;10382;49.140;9.234;2023-02-15T07:14:28;3.10;99.90
20446;DHT22;10382;49.140;9.234;2023-02-15T07:16:55;3.10;99.90
20446;DHT22;10382;49.140;9.234;2023-02-15T07:19:22;3.20;99.90
20446;DHT22;10382;49.140;9.234;2023-02-15T07:21:49;3.20;99.90
20446;DHT22;10382;49.140;9.234;2023-02-15T07:24:15;3.20;99.90
20446;DHT22;10382;49.140;9.234;2023-02-15T07:26:44;3.20;99.90
20446;DHT22;10382;49.140;9.234;2023-02-15T07:29:11;3.20;99.90
20446;DHT22;10382;49.140;9.234;2023-02-15T07:31:38;3.30;99.90
20446;DHT22;10382;49.140;9.234;2023-02-15T07:34:05;3.30;99.90
20446;DHT22;10382;49.140;9.234;2023-02-15T07:36:33;3.40;99.90
20446;DHT22;10382;49.140;9.234;2023-02-15T07:38:59;3.40;99.90
20446;DHT22;10382;49.140;9.234;2023-02-15T07:41:26;3.40;99.90
20446;DHT22;10382;49.140;9.234;2023-02-15T07:43:54;3.50;99.90
20446;DHT22;10382;49.140;9.234;2023-02-15T07:46:21;3.50;99.90
20446;DHT22;10382;49.140;9.234;2023-02-15T07:48:48;3.60;99.90
20446;DHT22;10382;49.140;9.234;2023-02-15T07:51:15;3.60;99.90
20446;DHT22;10382;49.140;9.234;2023-02-15T07:53:42;3.60;99.90
20446;DHT22;10382;49.140;9.234;2023-02-15T07:56:10;3.40;99.90
20446;DHT22;10382;49.140;9.234;2023-02-15T07:58:38;3.00;99.90
20446;DHT22;10382;49.140;9.234;2023-02-15T08:01:19;2.80;99.90
20446;DHT22;10382;49.140;9.234;2023-02-15T08:03:46;2.80;99.90
20446;DHT22;10382;49.140;9.234;2023-02-15T08:06:13;2.60;99.90
20446;DHT22;10382;49.140;9.234;2023-02-15T08:08:41;2.60;99.90
20446;DHT22;10382;49.140;9.234;2023-02-15T08:11:18;2.60;99.90
20446;DHT22;10382;49.140;9.234;2023-02-15T08:14:04;2.70;99.90
20446;DHT22;10382;49.140;9.234;2023-02-15T08:16:35;2.70;99.90
20446;DHT22;10382;49.140;9.234;2023-02-15T08:19:04;2.90;99.90
20446;DHT22;10382;49.140;9.234;2023-02-15T08:21:32;3.00;99.90
20446;DHT22;10382;49.140;9.234;2023-02-15T08:23:59;3.20;99.90
20446;DHT22;10382;49.140;9.234;2023-02-15T08:26:27;3.30;99.90
20446;DHT22;10382;49.140;9.234;2023-02-15T08:28:54;3.40;99.90
20446;DHT22;10382;49.140;9.234;2023-02-15T08:31:21;3.40;99.90
20446;DHT22;10382;49.140;9.234;2023-02-15T08:33:51;3.50;99.90
20446;DHT22;10382;49.140;9.234;2023-02-15T08:36:20;3.50;99.90
20446;DHT22;10382;49.140;9.234;2023-02-15T08:38:47;3.40;99.90
20446;DHT22;10382;49.140;9.234;2023-02-15T08:41:16;3.40;99.90
20446;DHT22;10382;49.140;9.234;2023-02-15T08:43:45;3.40;99.90
20446;DHT22;10382;49.140;9.234;2023-02-15T08:46:14;3.40;99.90
20446;DHT22;10382;49.140;9.234;2023-02-15T08:48:41;3.30;99.90
20446;DHT22;10382;49.140;9.234;2023-02-15T08:51:11;3.40;99.90
20446;DHT22;10382;49.140;9.234;2023-02-15T08:53:40;3.60;99.90
20446;DHT22;10382;49.140;9.234;2023-02-15T08:56:08;3.70;99.90
20446;DHT22;10382;49.140;9.234;2023-02-15T08:58:35;3.80;99.90
20446;DHT22;10382;49.140;9.234;2023-02-15T09:01:09;3.90;99.90
20446;DHT22;10382;49.140;9.234;2023-02-15T09:03:36;3.70;99.90
20446;DHT22;10382;49.140;9.234;2023-02-15T09:06:03;3.50;99.90
20446;DHT22;10382;49.140;9.234;2023-02-15T09:08:31;3.50;99.90
20446;DHT22;10382;49.140;9.234;2023-02-15T09:11:06;3.60;99.90
20446;DHT22;10382;49.140;9.234;2023-02-15T09:13:33;3.70;99.90
20446;DHT22;10382;49.140;9.234;2023-02-15T09:16:01;3.80;99.90
20446;DHT22;10382;49.140;9.234;2023-02-15T09:18:29;3.90;99.90
20446;DHT22;10382;49.140;9.234;2023-02-15T09:20:56;4.10;99.90
20446;DHT22;10382;49.140;9.234;2023-02-15T09:23:23;4.20;99.90
20446;DHT22;10382;49.140;9.234;2023-02-15T09:25:51;4.40;99.90
20446;DHT22;10382;49.140;9.234;2023-02-15T09:28:18;4.40;99.90
20446;DHT22;10382;49.140;9.234;2023-02-15T09:30:45;4.30;99.90
20446;DHT22;10382;49.140;9.234;2023-02-15T09:33:11;4.20;99.90
20446;DHT22;10382;49.140;9.234;2023-02-15T09:35:38;4.30;99.90
20446;DHT22;10382;49.140;9.234;2023-02-15T09:38:05;4.20;99.90
20446;DHT22;10382;49.140;9.234;2023-02-15T09:40:38;4.20;99.90
20446;DHT22;10382;49.140;9.234;2023-02-15T09:43:18;4.10;99.90
20446;DHT22;10382;49.140;9.234;2023-02-15T09:46:09;4.30;99.90
20446;DHT22;10382;49.140;9.234;2023-02-15T09:48:41;4.40;99.90
20446;DHT22;10382;49.140;9.234;2023-02-15T09:51:34;4.60;99.90
20446;DHT22;10382;49.140;9.234;2023-02-15T09:54:13;4.70;99.90
20446;DHT22;10382;49.140;9.234;2023-02-15T09:56:48;4.70;99.90
20446;DHT22;10382;49.140;9.234;2023-02-15T09:59:26;4.60;99.90
20446;DHT22;10382;49.140;9.234;2023-02-15T10:02:06;4.70;99.90
20446;DHT22;10382;49.140;9.234;2023-02-15T10:04:47;4.90;99.90
20446;DHT22;10382;49.140;9.234;2023-02-15T10:07:27;5.00;99.90
20446;DHT22;10382;49.140;9.234;2023-02-15T10:10:05;5.10;99.90
20446;DHT22;10382;49.140;9.234;2023-02-15T10:12:53;5.20;99.90
20446;DHT22;10382;49.140;9.234;2023-02-15T10:15:38;5.30;99.90
20446;DHT22;10382;49.140;9.234;2023-02-15T10:18:20;5.40;99.90
20446;DHT22;10382;49.140;9.234;2023-02-15T10:20:55;5.60;99.90
20446;DHT22;10382;49.140;9.234;2023-02-15T10:23:44;5.80;99.90
20446;DHT22;10382;49.140;9.234;2023-02-15T10:26:17;6.10;99.90
20446;DHT22;10382;49.140;9.234;2023-02-15T10:28:48;6.20;99.90
20446;DHT22;10382;49.140;9.234;2023-02-15T10:31:23;6.30;99.90
20446;DHT22;10382;49.140;9.234;2023-02-15T10:34:08;6.30;99.90
20446;DHT22;10382;49.140;9.234;2023-02-15T10:36:55;6.60;99.90
20446;DHT22;10382;49.140;9.234;2023-02-15T10:39:28;7.00;99.90
20446;DHT22;10382;49.140;9.234;2023-02-15T10:42:05;7.40;99.90
20446;DHT22;10382;49.140;9.234;2023-02-15T10:44:47;8.00;99.90
20446;DHT22;10382;49.140;9.234;2023-02-15T10:47:27;8.60;99.90
20446;DHT22;10382;49.140;9.234;2023-02-15T10:53:05;10.20;99.90
20446;DHT22;10382;49.140;9.234;2023-02-15T10:55:45;11.20;99.90
20446;DHT22;10382;49.140;9.234;2023-02-15T10:58:19;11.90;99.90
20446;DHT22;10382;49.140;9.234;2023-02-15T11:00:53;12.00;99.90
20446;DHT22;10382;49.140;9.234;2023-02-15T11:03:35;11.80;99.90
20446;DHT22;10382;49.140;9.234;2023-02-15T11:06:07;12.00;99.90
20446;DHT22;10382;49.140;9.234;2023-02-15T11:08:40;13.10;99.90
20446;DHT22;10382;49.140;9.234;2023-02-15T11:11:12;14.50;99.90
20446;DHT22;10382;49.140;9.234;2023-02-15T11:13:45;16.20;96.10
20446;DHT22;10382;49.140;9.234;2023-02-15T11:16:15;17.70;90.40
20446;DHT22;10382;49.140;9.234;2023-02-15T11:18:46;18.50;78.20
20446;DHT22;10382;49.140;9.234;2023-02-15T11:21:21;19.40;70.70
20446;DHT22;10382;49.140;9.234;2023-02-15T11:23:49;19.90;61.30
20446;DHT22;10382;49.140;9.234;2023-02-15T11:26:19;19.80;61.80
20446;DHT22;10382;49.140;9.234;2023-02-15T11:28:52;20.30;59.50
20446;DHT22;10382;49.140;9.234;2023-02-15T11:31:22;20.90;58.50
20446;DHT22;10382;49.140;9.234;2023-02-15T11:33:53;21.80;56.90
20446;DHT22;10382;49.140;9.234;2023-02-15T11:36:26;22.70;54.50
20446;DHT22;10382;49.140;9.234;2023-02-15T11:38:58;23.20;52.40
20446;DHT22;10382;49.140;9.234;2023-02-15T11:41:29;23.80;51.40
20446;DHT22;10382;49.140;9.234;2023-02-15T11:44:00;24.30;49.50
20446;DHT22;10382;49.140;9.234;2023-02-15T11:46:31;24.80;47.50
20446;DHT22;10382;49.140;9.234;2023-02-15T11:49:00;24.80;46.50
20446;DHT22;10382;49.140;9.234;2023-02-15T11:51:29;24.60;46.50
20446;DHT22;10382;49.140;9.234;2023-02-15T11:53:56;25.00;45.60
20446;DHT22;10382;49.140;9.234;2023-02-15T11:56:24;25.10;45.50
20446;DHT22;10382;49.140;9.234;2023-02-15T11:58:55;25.20;45.20
20446;DHT22;10382;49.140;9.234;2023-02-15T12:01:28;25.50;44.10
20446;DHT22;10382;49.140;9.234;2023-02-15T12:04:01;25.60;43.60
20446;DHT22;10382;49.140;9.234;2023-02-15T12:06:32;25.80;43.10
20446;DHT22;10382;49.140;9.234;2023-02-15T12:09:03;25.30;43.40
20446;DHT22;10382;49.140;9.234;2023-02-15T12:11:35;25.40;43.00
20446;DHT22;10382;49.140;9.234;2023-02-15T12:14:04;25.30;42.60
20446;DHT22;10382;49.140;9.234;2023-02-15T12:16:40;25.40;42.80
20446;DHT22;10382;49.140;9.234;2023-02-15T12:19:19;25.70;42.80
20446;DHT22;10382;49.140;9.234;2023-02-15T12:21:51;26.10;42.50
20446;DHT22;10382;49.140;9.234;2023-02-15T12:24:21;26.40;41.50
20446;DHT22;10382;49.140;9.234;2023-02-15T12:26:57;26.50;41.70
20446;DHT22;10382;49.140;9.234;2023-02-15T12:29:27;26.60;41.20
20446;DHT22;10382;49.140;9.234;2023-02-15T12:31:57;26.60;41.30
20446;DHT22;10382;49.140;9.234;2023-02-15T12:34:29;26.90;41.00
20446;DHT22;10382;49.140;9.234;2023-02-15T12:37:02;27.30;40.50
20446;DHT22;10382;49.140;9.234;2023-02-15T12:39:34;27.40;39.70
20446;DHT22;10382;49.140;9.234;2023-02-15T12:42:04;27.40;39.80
20446;DHT22;10382;49.140;9.234;2023-02-15T12:44:32;27.40;40.30
20446;DHT22;10382;49.140;9.234;2023-02-15T12:47:01;27.50;40.00
20446;DHT22;10382;49.140;9.234;2023-02-15T12:49:31;27.60;39.60
20446;DHT22;10382;49.140;9.234;2023-02-15T12:51:59;27.90;39.90
20446;DHT22;10382;49.140;9.234;2023-02-15T12:54:36;27.90;39.50
20446;DHT22;10382;49.140;9.234;2023-02-15T12:57:22;28.00;40.00
20446;DHT22;10382;49.140;9.234;2023-02-15T12:59:52;28.00;39.40
20446;DHT22;10382;49.140;9.234;2023-02-15T13:02:25;28.10;39.00
20446;DHT22;10382;49.140;9.234;2023-02-15T13:04:56;28.10;38.80
20446;DHT22;10382;49.140;9.234;2023-02-15T13:07:25;28.00;39.00
20446;DHT22;10382;49.140;9.234;2023-02-15T13:09:57;28.10;39.10
20446;DHT22;10382;49.140;9.234;2023-02-15T13:12:25;28.30;38.70
20446;DHT22;10382;49.140;9.234;2023-02-15T13:14:54;28.30;38.50
20446;DHT22;10382;49.140;9.234;2023-02-15T13:17:25;28.50;38.60
20446;DHT22;10382;49.140;9.234;2023-02-15T13:19:58;28.50;38.60
20446;DHT22;10382;49.140;9.234;2023-02-15T13:22:31;28.50;38.10
20446;DHT22;10382;49.140;9.234;2023-02-15T13:25:04;27.70;38.20
20446;DHT22;10382;49.140;9.234;2023-02-15T13:27:37;26.90;39.60
20446;DHT22;10382;49.140;9.234;2023-02-15T13:30:17;26.80;40.00
20446;DHT22;10382;49.140;9.234;2023-02-15T13:32:49;26.90;39.80
20446;DHT22;10382;49.140;9.234;2023-02-15T13:35:18;27.20;39.40
20446;DHT22;10382;49.140;9.234;2023-02-15T13:38:02;27.40;39.20
20446;DHT22;10382;49.140;9.234;2023-02-15T13:40:37;27.50;39.20
20446;DHT22;10382;49.140;9.234;2023-02-15T13:43:19;27.80;38.80
20446;DHT22;10382;49.140;9.234;2023-02-15T13:45:59;27.90;38.90
20446;DHT22;10382;49.140;9.234;2023-02-15T13:48:34;28.10;38.40
20446;DHT22;10382;49.140;9.234;2023-02-15T13:51:13;27.70;39.20
20446;DHT22;10382;49.140;9.234;2023-02-15T13:54:00;27.60;39.20
20446;DHT22;10382;49.140;9.234;2023-02-15T13:56:38;27.70;39.10
20446;DHT22;10382;49.140;9.234;2023-02-15T13:59:33;27.90;38.90
20446;DHT22;10382;49.140;9.234;2023-02-15T14:02:38;28.00;38.70
20446;DHT22;10382;49.140;9.234;2023-02-15T14:05:41;28.10;38.80
20446;DHT22;10382;49.140;9.234;2023-02-15T14:08:19;28.00;38.80
20446;DHT22;10382;49.140;9.234;2023-02-15T14:10:57;28.10;38.80
20446;DHT22;10382;49.140;9.234;2023-02-15T14:13:50;27.90;38.90
20446;DHT22;10382;49.140;9.234;2023-02-15T14:16:26;27.90;39.30
20446;DHT22;10382;49.140;9.234;2023-02-15T14:19:05;28.00;39.10
20446;DHT22;10382;49.140;9.234;2023-02-15T14:21:42;28.20;38.70
20446;DHT22;10382;49.140;9.234;2023-02-15T14:24:24;28.10;38.80
20446;DHT22;10382;49.140;9.234;2023-02-15T14:26:59;27.90;39.10
20446;DHT22;10382;49.140;9.234;2023-02-15T14:29:40;27.90;39.10
20446;DHT22;10382;49.140;9.234;2023-02-15T14:32:12;27.80;39.40
20446;DHT22;10382;49.140;9.234;2023-02-15T14:34:45;28.00;39.30
20446;DHT22;10382;49.140;9.234;2023-02-15T14:37:17;28.00;38.90
20446;DHT22;10382;49.140;9.234;2023-02-15T14:39:52;27.50;39.90
20446;DHT22;10382;49.140;9.234;2023-02-15T14:42:43;27.40;39.50
20446;DHT22;10382;49.140;9.234;2023-02-15T14:45:20;26.80;40.00
20446;DHT22;10382;49.140;9.234;2023-02-15T14:47:54;26.80;40.20
20446;DHT22;10382;49.140;9.234;2023-02-15T14:50:44;26.80;40.40
20446;DHT22;10382;49.140;9.234;2023-02-15T14:53:35;27.00;40.30
20446;DHT22;10382;49.140;9.234;2023-02-15T14:56:20;27.00;40.30
20446;DHT22;10382;49.140;9.234;2023-02-15T14:59:11;27.00;40.10
20446;DHT22;10382;49.140;9.234;2023-02-15T15:01:40;26.60;40.50
20446;DHT22;10382;49.140;9.234;2023-02-15T15:04:09;26.40;40.60
20446;DHT22;10382;49.140;9.234;2023-02-15T15:06:38;26.30;40.90
20446;DHT22;10382;49.140;9.234;2023-02-15T15:09:12;26.20;40.90
20446;DHT22;10382;49.140;9.234;2023-02-15T15:11:45;25.90;41.20
20446;DHT22;10382;49.140;9.234;2023-02-15T15:14:38;25.70;41.40
20446;DHT22;10382;49.140;9.234;2023-02-15T15:17:08;25.30;41.80
20446;DHT22;10382;49.140;9.234;2023-02-15T15:20:03;24.90;42.10
20446;DHT22;10382;49.140;9.234;2023-02-15T15:22:34;24.30;42.60
20446;DHT22;10382;49.140;9.234;2023-02-15T15:25:03;23.60;43.10
20446;DHT22;10382;49.140;9.234;2023-02-15T15:27:51;22.70;43.70
20446;DHT22;10382;49.140;9.234;2023-02-15T15:30:48;21.80;45.10
20446;DHT22;10382;49.140;9.234;2023-02-15T15:42:36;19.30;48.30
20446;DHT22;10382;49.140;9.234;2023-02-15T15:45:27;19.10;48.80
20446;DHT22;10382;49.140;9.234;2023-02-15T15:48:06;18.70;49.30
20446;DHT22;10382;49.140;9.234;2023-02-15T15:50:39;18.00;49.80
20446;DHT22;10382;49.140;9.234;2023-02-15T15:53:07;17.30;50.80
20446;DHT22;10382;49.140;9.234;2023-02-15T15:55:47;16.60;51.60
20446;DHT22;10382;49.140;9.234;2023-02-15T15:58:17;16.00;52.80
20446;DHT22;10382;49.140;9.234;2023-02-15T16:00:47;15.40;53.90
20446;DHT22;10382;49.140;9.234;2023-02-15T16:03:21;14.90;54.90
20446;DHT22;10382;49.140;9.234;2023-02-15T16:05:48;14.50;56.00
20446;DHT22;10382;49.140;9.234;2023-02-15T16:08:26;14.10;57.00
20446;DHT22;10382;49.140;9.234;2023-02-15T16:10:53;13.80;57.70
20446;DHT22;10382;49.140;9.234;2023-02-15T16:13:20;13.50;59.00
20446;DHT22;10382;49.140;9.234;2023-02-15T16:15:50;13.20;59.90
20446;DHT22;10382;49.140;9.234;2023-02-15T16:18:20;13.00;61.10
20446;DHT22;10382;49.140;9.234;2023-02-15T16:20:52;12.80;63.20
20446;DHT22;10382;49.140;9.234;2023-02-15T16:23:41;12.50;65.50
20446;DHT22;10382;49.140;9.234;2023-02-15T16:26:18;12.30;69.00
20446;DHT22;10382;49.140;9.234;2023-02-15T16:28:49;12.20;74.80